sensor_id;sensor_type;location;lat;lon;timestamp;P1;durP1;ratioP1;P2;durP2;ratioP2
71490;SDS011;59307;50.060;9.150;2022-11-20T00:00:54;30.67;;;13.50;;
71490;SDS011;59307;50.060;9.150;2022-11-20T00:03:20;29.80;;;12.93;;
71490;SDS011;59307;50.060;9.150;2022-11-20T00:05:45;30.20;;;13.53;;
71490;SDS011;59307;50.060;9.150;2022-11-20T00:08:11;31.80;;;13.82;;
71490;SDS011;59307;50.060;9.150;2022-11-20T00:10:37;34.70;;;14.03;;
71490;SDS011;59307;50.060;9.150;2022-11-20T00:13:02;33.88;;;13.43;;
71490;SDS011;59307;50.060;9.150;2022-11-20T00:15:27;34.73;;;14.63;;
71490;SDS011;59307;50.060;9.150;2022-11-20T00:17:52;31.83;;;13.80;;
71490;SDS011;59307;50.060;9.150;2022-11-20T00:20:17;30.30;;;12.97;;
71490;SDS011;59307;50.060;9.150;2022-11-20T00:22:43;31.77;;;13.10;;
71490;SDS011;59307;50.060;9.150;2022-11-20T00:25:08;30.20;;;13.80;;
71490;SDS011;59307;50.060;9.150;2022-11-20T00:27:33;36.40;;;15.70;;
71490;SDS011;59307;50.060;9.150;2022-11-20T00:29:58;33.30;;;13.80;;
71490;SDS011;59307;50.060;9.150;2022-11-20T00:32:23;32.03;;;13.73;;
71490;SDS011;59307;50.060;9.150;2022-11-20T00:34:49;29.93;;;13.27;;
71490;SDS011;59307;50.060;9.150;2022-11-20T00:37:14;34.27;;;14.43;;
71490;SDS011;59307;50.060;9.150;2022-11-20T00:39:39;35.67;;;14.33;;
71490;SDS011;59307;50.060;9.150;2022-11-20T00:42:04;37.53;;;14.93;;
71490;SDS011;59307;50.060;9.150;2022-11-20T00:44:30;33.57;;;14.57;;
71490;SDS011;59307;50.060;9.150;2022-11-20T00:46:55;37.40;;;16.07;;
71490;SDS011;59307;50.060;9.150;2022-11-20T00:49:20;37.03;;;17.37;;
71490;SDS011;59307;50.060;9.150;2022-11-20T00:51:45;34.03;;;15.53;;
71490;SDS011;59307;50.060;9.150;2022-11-20T00:54:10;34.93;;;14.33;;
71490;SDS011;59307;50.060;9.150;2022-11-20T00:56:35;35.87;;;13.97;;
71490;SDS011;59307;50.060;9.150;2022-11-20T00:59:01;38.97;;;14.97;;
71490;SDS011;59307;50.060;9.150;2022-11-20T01:01:26;33.93;;;14.07;;
71490;SDS011;59307;50.060;9.150;2022-11-20T01:03:53;38.63;;;15.57;;
71490;SDS011;59307;50.060;9.150;2022-11-20T01:06:28;34.83;;;14.48;;
71490;SDS011;59307;50.060;9.150;2022-11-20T01:08:55;34.72;;;14.07;;
71490;SDS011;59307;50.060;9.150;2022-11-20T01:11:22;36.67;;;14.43;;
71490;SDS011;59307;50.060;9.150;2022-11-20T01:13:48;34.13;;;14.50;;
71490;SDS011;59307;50.060;9.150;2022-11-20T01:16:18;37.37;;;15.30;;
71490;SDS011;59307;50.060;9.150;2022-11-20T01:18:44;34.22;;;14.98;;
71490;SDS011;59307;50.060;9.150;2022-11-20T01:21:20;36.85;;;15.15;;
71490;SDS011;59307;50.060;9.150;2022-11-20T01:23:45;36.67;;;16.38;;
71490;SDS011;59307;50.060;9.150;2022-11-20T01:26:14;35.47;;;15.63;;
71490;SDS011;59307;50.060;9.150;2022-11-20T01:28:40;37.45;;;15.40;;
71490;SDS011;59307;50.060;9.150;2022-11-20T01:31:15;37.67;;;16.00;;
71490;SDS011;59307;50.060;9.150;2022-11-20T01:33:41;39.13;;;16.48;;
71490;SDS011;59307;50.060;9.150;2022-11-20T01:36:07;37.97;;;15.80;;
71490;SDS011;59307;50.060;9.150;2022-11-20T01:38:33;36.78;;;16.20;;
71490;SDS011;59307;50.060;9.150;2022-11-20T01:40:59;35.83;;;15.33;;
71490;SDS011;59307;50.060;9.150;2022-11-20T01:43:24;38.37;;;16.10;;
71490;SDS011;59307;50.060;9.150;2022-11-20T01:48:18;34.33;;;15.32;;
71490;SDS011;59307;50.060;9.150;2022-11-20T01:50:44;37.10;;;15.52;;
71490;SDS011;59307;50.060;9.150;2022-11-20T01:53:11;34.10;;;14.97;;
71490;SDS011;59307;50.060;9.150;2022-11-20T01:55:39;37.42;;;15.32;;
71490;SDS011;59307;50.060;9.150;2022-11-20T01:58:06;35.87;;;15.10;;
71490;SDS011;59307;50.060;9.150;2022-11-20T02:00:32;37.38;;;15.80;;
71490;SDS011;59307;50.060;9.150;2022-11-20T02:02:58;32.47;;;14.73;;
71490;SDS011;59307;50.060;9.150;2022-11-20T02:05:27;30.70;;;13.93;;
71490;SDS011;59307;50.060;9.150;2022-11-20T02:07:54;36.97;;;15.37;;
71490;SDS011;59307;50.060;9.150;2022-11-20T02:10:21;35.38;;;14.55;;
71490;SDS011;59307;50.060;9.150;2022-11-20T02:12:46;38.10;;;15.03;;
71490;SDS011;59307;50.060;9.150;2022-11-20T02:15:30;36.42;;;14.90;;
71490;SDS011;59307;50.060;9.150;2022-11-20T02:17:56;38.10;;;15.23;;
71490;SDS011;59307;50.060;9.150;2022-11-20T02:20:22;38.43;;;15.97;;
71490;SDS011;59307;50.060;9.150;2022-11-20T02:22:48;33.97;;;14.53;;
71490;SDS011;59307;50.060;9.150;2022-11-20T02:25:15;38.85;;;15.77;;
71490;SDS011;59307;50.060;9.150;2022-11-20T02:27:41;34.10;;;14.27;;
71490;SDS011;59307;50.060;9.150;2022-11-20T02:30:06;37.43;;;14.87;;
71490;SDS011;59307;50.060;9.150;2022-11-20T02:32:34;40.35;;;15.73;;
71490;SDS011;59307;50.060;9.150;2022-11-20T02:35:07;36.22;;;15.52;;
71490;SDS011;59307;50.060;9.150;2022-11-20T02:37:33;34.97;;;14.93;;
71490;SDS011;59307;50.060;9.150;2022-11-20T02:39:59;35.55;;;14.93;;
71490;SDS011;59307;50.060;9.150;2022-11-20T02:42:24;34.67;;;14.87;;
71490;SDS011;59307;50.060;9.150;2022-11-20T02:44:50;35.77;;;14.93;;
71490;SDS011;59307;50.060;9.150;2022-11-20T02:47:15;36.67;;;15.90;;
71490;SDS011;59307;50.060;9.150;2022-11-20T02:49:40;37.43;;;15.80;;
71490;SDS011;59307;50.060;9.150;2022-11-20T02:52:05;37.53;;;15.03;;
71490;SDS011;59307;50.060;9.150;2022-11-20T02:54:30;37.33;;;14.60;;
71490;SDS011;59307;50.060;9.150;2022-11-20T02:56:56;38.70;;;15.03;;
71490;SDS011;59307;50.060;9.150;2022-11-20T02:59:21;34.30;;;14.80;;
71490;SDS011;59307;50.060;9.150;2022-11-20T03:01:46;37.03;;;14.23;;
71490;SDS011;59307;50.060;9.150;2022-11-20T03:04:11;35.90;;;14.40;;
71490;SDS011;59307;50.060;9.150;2022-11-20T03:06:37;35.43;;;15.33;;
71490;SDS011;59307;50.060;9.150;2022-11-20T03:09:02;34.40;;;14.10;;
71490;SDS011;59307;50.060;9.150;2022-11-20T03:11:28;34.27;;;14.20;;
71490;SDS011;59307;50.060;9.150;2022-11-20T03:13:53;36.95;;;14.88;;
71490;SDS011;59307;50.060;9.150;2022-11-20T03:16:19;32.37;;;13.90;;
71490;SDS011;59307;50.060;9.150;2022-11-20T03:18:44;34.10;;;13.90;;
71490;SDS011;59307;50.060;9.150;2022-11-20T03:21:10;33.97;;;13.23;;
71490;SDS011;59307;50.060;9.150;2022-11-20T03:23:36;36.83;;;15.03;;
71490;SDS011;59307;50.060;9.150;2022-11-20T03:26:08;34.83;;;14.03;;
71490;SDS011;59307;50.060;9.150;2022-11-20T03:28:34;32.87;;;13.40;;
71490;SDS011;59307;50.060;9.150;2022-11-20T03:31:04;33.50;;;13.53;;
71490;SDS011;59307;50.060;9.150;2022-11-20T03:33:29;37.00;;;13.55;;
71490;SDS011;59307;50.060;9.150;2022-11-20T03:35:54;33.90;;;13.90;;
71490;SDS011;59307;50.060;9.150;2022-11-20T03:38:19;31.50;;;12.93;;
71490;SDS011;59307;50.060;9.150;2022-11-20T03:40:45;31.47;;;12.53;;
71490;SDS011;59307;50.060;9.150;2022-11-20T03:43:10;27.83;;;12.20;;
71490;SDS011;59307;50.060;9.150;2022-11-20T03:45:35;32.53;;;13.30;;
71490;SDS011;59307;50.060;9.150;2022-11-20T03:48:00;33.93;;;14.27;;
71490;SDS011;59307;50.060;9.150;2022-11-20T03:50:25;32.67;;;13.07;;
71490;SDS011;59307;50.060;9.150;2022-11-20T03:52:51;32.00;;;13.13;;
71490;SDS011;59307;50.060;9.150;2022-11-20T03:55:16;34.13;;;13.17;;
71490;SDS011;59307;50.060;9.150;2022-11-20T03:57:41;36.93;;;13.73;;
71490;SDS011;59307;50.060;9.150;2022-11-20T04:00:06;32.73;;;13.23;;
71490;SDS011;59307;50.060;9.150;2022-11-20T04:02:32;32.08;;;13.27;;
71490;SDS011;59307;50.060;9.150;2022-11-20T04:04:57;32.47;;;12.87;;
71490;SDS011;59307;50.060;9.150;2022-11-20T04:07:22;34.70;;;13.40;;
71490;SDS011;59307;50.060;9.150;2022-11-20T04:09:47;33.67;;;13.03;;
71490;SDS011;59307;50.060;9.150;2022-11-20T04:12:13;28.63;;;12.23;;
71490;SDS011;59307;50.060;9.150;2022-11-20T04:14:38;30.87;;;12.90;;
71490;SDS011;59307;50.060;9.150;2022-11-20T04:17:03;31.63;;;12.60;;
71490;SDS011;59307;50.060;9.150;2022-11-20T04:19:29;30.53;;;12.67;;
71490;SDS011;59307;50.060;9.150;2022-11-20T04:21:54;31.60;;;13.07;;
71490;SDS011;59307;50.060;9.150;2022-11-20T04:24:19;33.73;;;13.90;;
71490;SDS011;59307;50.060;9.150;2022-11-20T04:26:44;31.00;;;13.60;;
71490;SDS011;59307;50.060;9.150;2022-11-20T04:29:10;35.80;;;13.70;;
71490;SDS011;59307;50.060;9.150;2022-11-20T04:31:36;36.25;;;14.25;;
71490;SDS011;59307;50.060;9.150;2022-11-20T04:34:04;35.77;;;13.80;;
71490;SDS011;59307;50.060;9.150;2022-11-20T04:36:30;35.05;;;13.85;;
71490;SDS011;59307;50.060;9.150;2022-11-20T04:38:56;31.53;;;12.70;;
71490;SDS011;59307;50.060;9.150;2022-11-20T04:41:22;34.22;;;13.38;;
71490;SDS011;59307;50.060;9.150;2022-11-20T04:43:48;33.00;;;12.88;;
71490;SDS011;59307;50.060;9.150;2022-11-20T04:46:14;36.58;;;15.18;;
71490;SDS011;59307;50.060;9.150;2022-11-20T04:48:39;34.40;;;15.27;;
71490;SDS011;59307;50.060;9.150;2022-11-20T04:51:05;34.67;;;14.07;;
71490;SDS011;59307;50.060;9.150;2022-11-20T04:53:30;32.90;;;13.80;;
71490;SDS011;59307;50.060;9.150;2022-11-20T04:55:59;37.67;;;13.83;;
71490;SDS011;59307;50.060;9.150;2022-11-20T04:58:24;33.85;;;13.63;;
71490;SDS011;59307;50.060;9.150;2022-11-20T05:00:49;29.20;;;12.27;;
71490;SDS011;59307;50.060;9.150;2022-11-20T05:03:16;32.97;;;13.55;;
71490;SDS011;59307;50.060;9.150;2022-11-20T05:05:41;31.40;;;12.33;;
71490;SDS011;59307;50.060;9.150;2022-11-20T05:08:07;33.30;;;12.90;;
71490;SDS011;59307;50.060;9.150;2022-11-20T05:10:32;34.33;;;14.10;;
71490;SDS011;59307;50.060;9.150;2022-11-20T05:12:57;32.53;;;13.40;;
71490;SDS011;59307;50.060;9.150;2022-11-20T05:15:22;34.90;;;14.23;;
71490;SDS011;59307;50.060;9.150;2022-11-20T05:17:48;35.57;;;13.03;;
71490;SDS011;59307;50.060;9.150;2022-11-20T05:20:14;36.65;;;13.32;;
71490;SDS011;59307;50.060;9.150;2022-11-20T05:22:39;32.00;;;13.40;;
71490;SDS011;59307;50.060;9.150;2022-11-20T05:25:04;33.50;;;13.40;;
71490;SDS011;59307;50.060;9.150;2022-11-20T05:27:29;33.40;;;13.33;;
71490;SDS011;59307;50.060;9.150;2022-11-20T05:29:54;36.13;;;13.43;;
71490;SDS011;59307;50.060;9.150;2022-11-20T05:32:20;34.07;;;12.77;;
71490;SDS011;59307;50.060;9.150;2022-11-20T05:34:45;37.20;;;13.30;;
71490;SDS011;59307;50.060;9.150;2022-11-20T05:37:10;34.10;;;13.20;;
71490;SDS011;59307;50.060;9.150;2022-11-20T05:39:35;31.77;;;12.63;;
71490;SDS011;59307;50.060;9.150;2022-11-20T05:42:00;31.90;;;13.03;;
71490;SDS011;59307;50.060;9.150;2022-11-20T05:44:44;36.15;;;12.77;;
71490;SDS011;59307;50.060;9.150;2022-11-20T05:47:09;36.70;;;12.60;;
71490;SDS011;59307;50.060;9.150;2022-11-20T05:49:35;29.30;;;12.03;;
71490;SDS011;59307;50.060;9.150;2022-11-20T05:52:00;31.13;;;12.83;;
71490;SDS011;59307;50.060;9.150;2022-11-20T05:54:25;31.80;;;12.77;;
71490;SDS011;59307;50.060;9.150;2022-11-20T05:56:50;33.33;;;11.50;;
71490;SDS011;59307;50.060;9.150;2022-11-20T05:59:15;34.30;;;12.40;;
71490;SDS011;59307;50.060;9.150;2022-11-20T06:01:42;31.73;;;12.17;;
71490;SDS011;59307;50.060;9.150;2022-11-20T06:04:07;37.83;;;12.53;;
71490;SDS011;59307;50.060;9.150;2022-11-20T06:06:32;37.23;;;14.37;;
71490;SDS011;59307;50.060;9.150;2022-11-20T06:08:57;35.70;;;12.33;;
71490;SDS011;59307;50.060;9.150;2022-11-20T06:11:24;37.20;;;13.25;;
71490;SDS011;59307;50.060;9.150;2022-11-20T06:13:49;35.87;;;14.10;;
71490;SDS011;59307;50.060;9.150;2022-11-20T06:16:15;37.83;;;14.03;;
71490;SDS011;59307;50.060;9.150;2022-11-20T06:18:41;36.20;;;13.63;;
71490;SDS011;59307;50.060;9.150;2022-11-20T06:21:07;47.58;;;14.15;;
71490;SDS011;59307;50.060;9.150;2022-11-20T06:23:33;37.13;;;13.33;;
71490;SDS011;59307;50.060;9.150;2022-11-20T06:28:50;46.70;;;12.98;;
71490;SDS011;59307;50.060;9.150;2022-11-20T06:31:17;49.00;;;12.67;;
71490;SDS011;59307;50.060;9.150;2022-11-20T06:33:43;42.38;;;12.73;;
71490;SDS011;59307;50.060;9.150;2022-11-20T06:36:09;40.10;;;11.83;;
71490;SDS011;59307;50.060;9.150;2022-11-20T06:38:34;38.08;;;12.30;;
71490;SDS011;59307;50.060;9.150;2022-11-20T06:40:59;55.13;;;13.90;;
71490;SDS011;59307;50.060;9.150;2022-11-20T06:43:25;34.87;;;12.00;;
71490;SDS011;59307;50.060;9.150;2022-11-20T06:45:54;44.67;;;13.48;;
71490;SDS011;59307;50.060;9.150;2022-11-20T06:48:20;38.37;;;11.43;;
71490;SDS011;59307;50.060;9.150;2022-11-20T06:50:45;40.50;;;12.35;;
71490;SDS011;59307;50.060;9.150;2022-11-20T06:53:10;39.00;;;12.70;;
71490;SDS011;59307;50.060;9.150;2022-11-20T06:55:35;52.20;;;12.67;;
71490;SDS011;59307;50.060;9.150;2022-11-20T06:58:01;48.43;;;13.07;;
71490;SDS011;59307;50.060;9.150;2022-11-20T07:00:26;35.23;;;11.70;;
71490;SDS011;59307;50.060;9.150;2022-11-20T07:02:51;40.70;;;12.70;;
71490;SDS011;59307;50.060;9.150;2022-11-20T07:05:17;35.30;;;11.97;;
71490;SDS011;59307;50.060;9.150;2022-11-20T07:07:42;47.33;;;12.10;;
71490;SDS011;59307;50.060;9.150;2022-11-20T07:10:07;35.83;;;12.27;;
71490;SDS011;59307;50.060;9.150;2022-11-20T07:12:33;35.63;;;12.20;;
71490;SDS011;59307;50.060;9.150;2022-11-20T07:14:58;44.03;;;12.80;;
71490;SDS011;59307;50.060;9.150;2022-11-20T07:17:23;36.37;;;12.20;;
71490;SDS011;59307;50.060;9.150;2022-11-20T07:19:48;48.53;;;13.23;;
71490;SDS011;59307;50.060;9.150;2022-11-20T07:22:14;45.30;;;12.30;;
71490;SDS011;59307;50.060;9.150;2022-11-20T07:24:39;36.87;;;9.53;;
71490;SDS011;59307;50.060;9.150;2022-11-20T07:27:04;56.13;;;11.07;;
71490;SDS011;59307;50.060;9.150;2022-11-20T07:29:30;81.50;;;12.33;;
71490;SDS011;59307;50.060;9.150;2022-11-20T07:31:55;34.63;;;11.53;;
71490;SDS011;59307;50.060;9.150;2022-11-20T07:34:21;32.40;;;11.25;;
71490;SDS011;59307;50.060;9.150;2022-11-20T07:36:46;33.83;;;11.47;;
71490;SDS011;59307;50.060;9.150;2022-11-20T07:39:11;30.80;;;10.30;;
71490;SDS011;59307;50.060;9.150;2022-11-20T07:41:36;40.87;;;10.27;;
71490;SDS011;59307;50.060;9.150;2022-11-20T07:44:02;31.40;;;10.40;;
71490;SDS011;59307;50.060;9.150;2022-11-20T07:46:27;34.03;;;10.30;;
71490;SDS011;59307;50.060;9.150;2022-11-20T07:48:52;30.57;;;10.20;;
71490;SDS011;59307;50.060;9.150;2022-11-20T07:51:17;35.37;;;10.27;;
71490;SDS011;59307;50.060;9.150;2022-11-20T07:53:42;29.93;;;10.17;;
71490;SDS011;59307;50.060;9.150;2022-11-20T07:56:08;29.70;;;10.03;;
71490;SDS011;59307;50.060;9.150;2022-11-20T07:58:33;28.17;;;10.33;;
71490;SDS011;59307;50.060;9.150;2022-11-20T08:01:05;26.70;;;10.23;;
71490;SDS011;59307;50.060;9.150;2022-11-20T08:03:31;25.38;;;9.18;;
71490;SDS011;59307;50.060;9.150;2022-11-20T08:05:58;15.93;;;6.67;;
71490;SDS011;59307;50.060;9.150;2022-11-20T08:08:23;19.30;;;7.93;;
71490;SDS011;59307;50.060;9.150;2022-11-20T08:10:48;23.90;;;9.33;;
71490;SDS011;59307;50.060;9.150;2022-11-20T08:13:13;21.60;;;8.30;;
71490;SDS011;59307;50.060;9.150;2022-11-20T08:15:58;23.73;;;8.23;;
71490;SDS011;59307;50.060;9.150;2022-11-20T08:18:23;22.27;;;8.83;;
71490;SDS011;59307;50.060;9.150;2022-11-20T08:20:48;20.23;;;8.40;;
71490;SDS011;59307;50.060;9.150;2022-11-20T08:23:13;23.27;;;9.17;;
71490;SDS011;59307;50.060;9.150;2022-11-20T08:25:39;21.80;;;9.23;;
71490;SDS011;59307;50.060;9.150;2022-11-20T08:28:05;22.47;;;9.30;;
71490;SDS011;59307;50.060;9.150;2022-11-20T08:30:31;21.90;;;9.20;;
71490;SDS011;59307;50.060;9.150;2022-11-20T08:33:00;21.30;;;8.80;;
71490;SDS011;59307;50.060;9.150;2022-11-20T08:35:26;22.02;;;8.93;;
71490;SDS011;59307;50.060;9.150;2022-11-20T08:37:51;22.30;;;9.67;;
71490;SDS011;59307;50.060;9.150;2022-11-20T08:40:16;22.17;;;8.80;;
71490;SDS011;59307;50.060;9.150;2022-11-20T08:42:48;20.97;;;8.90;;
71490;SDS011;59307;50.060;9.150;2022-11-20T08:45:13;18.73;;;7.80;;
71490;SDS011;59307;50.060;9.150;2022-11-20T08:47:38;16.13;;;7.30;;
71490;SDS011;59307;50.060;9.150;2022-11-20T08:50:04;19.43;;;8.13;;
71490;SDS011;59307;50.060;9.150;2022-11-20T08:52:29;18.23;;;7.10;;
71490;SDS011;59307;50.060;9.150;2022-11-20T08:54:54;15.93;;;6.93;;
71490;SDS011;59307;50.060;9.150;2022-11-20T08:57:19;13.70;;;6.27;;
71490;SDS011;59307;50.060;9.150;2022-11-20T08:59:45;15.03;;;6.67;;
71490;SDS011;59307;50.060;9.150;2022-11-20T09:02:10;15.30;;;7.30;;
71490;SDS011;59307;50.060;9.150;2022-11-20T09:04:36;17.27;;;7.28;;
71490;SDS011;59307;50.060;9.150;2022-11-20T09:07:02;16.70;;;6.77;;
71490;SDS011;59307;50.060;9.150;2022-11-20T09:09:27;13.17;;;5.87;;
71490;SDS011;59307;50.060;9.150;2022-11-20T09:11:53;16.47;;;6.47;;
71490;SDS011;59307;50.060;9.150;2022-11-20T09:14:18;14.93;;;7.27;;
71490;SDS011;59307;50.060;9.150;2022-11-20T09:16:44;16.40;;;7.20;;
71490;SDS011;59307;50.060;9.150;2022-11-20T09:19:09;14.30;;;6.53;;
71490;SDS011;59307;50.060;9.150;2022-11-20T09:21:35;16.90;;;7.10;;
71490;SDS011;59307;50.060;9.150;2022-11-20T09:24:00;15.30;;;6.80;;
71490;SDS011;59307;50.060;9.150;2022-11-20T09:26:25;14.23;;;5.80;;
71490;SDS011;59307;50.060;9.150;2022-11-20T09:28:50;13.83;;;6.90;;
71490;SDS011;59307;50.060;9.150;2022-11-20T09:31:19;12.13;;;4.50;;
71490;SDS011;59307;50.060;9.150;2022-11-20T09:33:46;14.88;;;6.38;;
71490;SDS011;59307;50.060;9.150;2022-11-20T09:36:11;14.87;;;6.17;;
71490;SDS011;59307;50.060;9.150;2022-11-20T09:38:36;11.93;;;5.60;;
71490;SDS011;59307;50.060;9.150;2022-11-20T09:41:05;15.90;;;6.53;;
71490;SDS011;59307;50.060;9.150;2022-11-20T09:43:52;15.60;;;6.78;;
71490;SDS011;59307;50.060;9.150;2022-11-20T09:46:29;17.77;;;7.18;;
71490;SDS011;59307;50.060;9.150;2022-11-20T09:51:40;12.65;;;5.10;;
71490;SDS011;59307;50.060;9.150;2022-11-20T09:56:35;14.27;;;6.43;;
71490;SDS011;59307;50.060;9.150;2022-11-20T09:59:04;15.90;;;6.32;;
71490;SDS011;59307;50.060;9.150;2022-11-20T10:01:31;13.45;;;6.63;;
71490;SDS011;59307;50.060;9.150;2022-11-20T10:03:58;13.68;;;6.35;;
71490;SDS011;59307;50.060;9.150;2022-11-20T10:06:44;15.55;;;6.28;;
71490;SDS011;59307;50.060;9.150;2022-11-20T10:09:16;14.47;;;5.97;;
71490;SDS011;59307;50.060;9.150;2022-11-20T10:14:42;18.80;;;8.05;;
71490;SDS011;59307;50.060;9.150;2022-11-20T10:17:22;13.60;;;5.97;;
71490;SDS011;59307;50.060;9.150;2022-11-20T10:28:02;19.10;;;8.50;;
71490;SDS011;59307;50.060;9.150;2022-11-20T10:30:30;18.40;;;8.15;;
71490;SDS011;59307;50.060;9.150;2022-11-20T10:33:06;18.53;;;8.23;;
71490;SDS011;59307;50.060;9.150;2022-11-20T10:35:58;20.25;;;9.07;;
71490;SDS011;59307;50.060;9.150;2022-11-20T10:38:23;18.58;;;8.25;;
71490;SDS011;59307;50.060;9.150;2022-11-20T10:40:54;17.88;;;7.85;;
71490;SDS011;59307;50.060;9.150;2022-11-20T10:43:41;19.90;;;8.63;;
71490;SDS011;59307;50.060;9.150;2022-11-20T10:46:15;19.00;;;8.30;;
71490;SDS011;59307;50.060;9.150;2022-11-20T10:48:41;19.63;;;8.57;;
71490;SDS011;59307;50.060;9.150;2022-11-20T10:56:38;20.45;;;7.35;;
71490;SDS011;59307;50.060;9.150;2022-11-20T11:01:40;20.27;;;8.53;;
71490;SDS011;59307;50.060;9.150;2022-11-20T11:04:07;18.73;;;8.02;;
71490;SDS011;59307;50.060;9.150;2022-11-20T11:06:42;21.88;;;8.57;;
71490;SDS011;59307;50.060;9.150;2022-11-20T11:09:11;18.05;;;7.63;;
71490;SDS011;59307;50.060;9.150;2022-11-20T11:11:38;21.58;;;9.13;;
71490;SDS011;59307;50.060;9.150;2022-11-20T11:14:07;20.93;;;7.90;;
71490;SDS011;59307;50.060;9.150;2022-11-20T11:16:32;21.33;;;8.65;;
71490;SDS011;59307;50.060;9.150;2022-11-20T11:19:05;20.83;;;8.63;;
71490;SDS011;59307;50.060;9.150;2022-11-20T11:21:30;20.67;;;7.75;;
71490;SDS011;59307;50.060;9.150;2022-11-20T11:24:04;21.53;;;9.03;;
71490;SDS011;59307;50.060;9.150;2022-11-20T11:26:29;21.63;;;8.83;;
71490;SDS011;59307;50.060;9.150;2022-11-20T11:28:59;25.17;;;9.15;;
71490;SDS011;59307;50.060;9.150;2022-11-20T11:31:28;22.47;;;9.20;;
71490;SDS011;59307;50.060;9.150;2022-11-20T11:34:06;23.27;;;8.95;;
71490;SDS011;59307;50.060;9.150;2022-11-20T11:36:32;23.20;;;9.65;;
71490;SDS011;59307;50.060;9.150;2022-11-20T11:38:58;22.48;;;9.35;;
71490;SDS011;59307;50.060;9.150;2022-11-20T11:41:24;24.50;;;11.17;;
71490;SDS011;59307;50.060;9.150;2022-11-20T11:43:54;23.90;;;9.27;;
71490;SDS011;59307;50.060;9.150;2022-11-20T11:46:39;22.83;;;10.20;;
71490;SDS011;59307;50.060;9.150;2022-11-20T11:52:16;24.40;;;10.63;;
71490;SDS011;59307;50.060;9.150;2022-11-20T11:54:23;21.08;;;8.57;;
71490;SDS011;59307;50.060;9.150;2022-11-20T11:56:49;20.45;;;9.43;;
71490;SDS011;59307;50.060;9.150;2022-11-20T11:59:25;25.80;;;10.87;;
71490;SDS011;59307;50.060;9.150;2022-11-20T12:01:53;20.88;;;9.50;;
71490;SDS011;59307;50.060;9.150;2022-11-20T12:07:09;24.50;;;9.97;;
71490;SDS011;59307;50.060;9.150;2022-11-20T12:09:37;23.55;;;9.85;;
71490;SDS011;59307;50.060;9.150;2022-11-20T12:12:08;23.70;;;9.77;;
71490;SDS011;59307;50.060;9.150;2022-11-20T12:14:36;29.38;;;12.45;;
71490;SDS011;59307;50.060;9.150;2022-11-20T12:17:02;38.53;;;15.73;;
71490;SDS011;59307;50.060;9.150;2022-11-20T12:19:29;31.27;;;13.53;;
71490;SDS011;59307;50.060;9.150;2022-11-20T12:22:00;26.17;;;11.18;;
71490;SDS011;59307;50.060;9.150;2022-11-20T12:27:01;28.03;;;11.97;;
71490;SDS011;59307;50.060;9.150;2022-11-20T12:37:30;29.38;;;11.85;;
71490;SDS011;59307;50.060;9.150;2022-11-20T12:40:12;28.37;;;11.77;;
71490;SDS011;59307;50.060;9.150;2022-11-20T12:42:54;22.63;;;9.50;;
71490;SDS011;59307;50.060;9.150;2022-11-20T12:45:51;24.20;;;10.75;;
71490;SDS011;59307;50.060;9.150;2022-11-20T12:48:22;24.95;;;10.35;;
71490;SDS011;59307;50.060;9.150;2022-11-20T13:06:46;23.27;;;9.73;;
71490;SDS011;59307;50.060;9.150;2022-11-20T13:09:13;25.95;;;11.80;;
71490;SDS011;59307;50.060;9.150;2022-11-20T13:12:01;22.83;;;10.73;;
71490;SDS011;59307;50.060;9.150;2022-11-20T13:14:41;27.02;;;12.52;;
71490;SDS011;59307;50.060;9.150;2022-11-20T13:17:12;25.65;;;11.35;;
71490;SDS011;59307;50.060;9.150;2022-11-20T13:19:38;25.45;;;10.98;;
71490;SDS011;59307;50.060;9.150;2022-11-20T13:22:04;26.23;;;11.90;;
71490;SDS011;59307;50.060;9.150;2022-11-20T13:24:30;25.88;;;10.93;;
71490;SDS011;59307;50.060;9.150;2022-11-20T13:29:31;27.40;;;11.07;;
71490;SDS011;59307;50.060;9.150;2022-11-20T13:34:28;26.65;;;11.10;;
71490;SDS011;59307;50.060;9.150;2022-11-20T13:36:54;25.53;;;11.30;;
71490;SDS011;59307;50.060;9.150;2022-11-20T13:39:36;23.38;;;10.75;;
71490;SDS011;59307;50.060;9.150;2022-11-20T13:42:03;24.73;;;10.57;;
71490;SDS011;59307;50.060;9.150;2022-11-20T13:45:00;24.47;;;9.20;;
71490;SDS011;59307;50.060;9.150;2022-11-20T13:47:26;22.27;;;9.68;;
71490;SDS011;59307;50.060;9.150;2022-11-20T13:49:52;21.25;;;9.35;;
71490;SDS011;59307;50.060;9.150;2022-11-20T14:02:31;20.52;;;9.20;;
71490;SDS011;59307;50.060;9.150;2022-11-20T14:04:57;23.13;;;10.17;;
71490;SDS011;59307;50.060;9.150;2022-11-20T14:07:24;23.85;;;10.65;;
71490;SDS011;59307;50.060;9.150;2022-11-20T14:12:16;22.37;;;10.30;;
71490;SDS011;59307;50.060;9.150;2022-11-20T14:14:50;21.40;;;9.73;;
71490;SDS011;59307;50.060;9.150;2022-11-20T14:17:20;23.77;;;10.23;;
71490;SDS011;59307;50.060;9.150;2022-11-20T14:19:46;24.53;;;10.43;;
71490;SDS011;59307;50.060;9.150;2022-11-20T14:22:22;21.40;;;9.65;;
71490;SDS011;59307;50.060;9.150;2022-11-20T14:24:48;20.00;;;9.10;;
71490;SDS011;59307;50.060;9.150;2022-11-20T14:27:14;20.67;;;8.95;;
71490;SDS011;59307;50.060;9.150;2022-11-20T14:29:40;20.00;;;9.48;;
71490;SDS011;59307;50.060;9.150;2022-11-20T14:32:08;18.67;;;9.07;;
71490;SDS011;59307;50.060;9.150;2022-11-20T14:34:35;19.02;;;8.32;;
71490;SDS011;59307;50.060;9.150;2022-11-20T14:37:03;17.50;;;8.80;;
71490;SDS011;59307;50.060;9.150;2022-11-20T14:39:30;20.80;;;9.00;;
71490;SDS011;59307;50.060;9.150;2022-11-20T14:41:56;17.65;;;8.43;;
71490;SDS011;59307;50.060;9.150;2022-11-20T14:44:31;17.60;;;8.80;;
71490;SDS011;59307;50.060;9.150;2022-11-20T14:46:57;16.83;;;8.40;;
71490;SDS011;59307;50.060;9.150;2022-11-20T14:49:23;18.05;;;8.63;;
71490;SDS011;59307;50.060;9.150;2022-11-20T14:51:58;17.85;;;8.05;;
71490;SDS011;59307;50.060;9.150;2022-11-20T14:54:23;18.80;;;8.70;;
71490;SDS011;59307;50.060;9.150;2022-11-20T14:57:01;21.63;;;8.63;;
71490;SDS011;59307;50.060;9.150;2022-11-20T14:59:27;17.08;;;8.32;;
71490;SDS011;59307;50.060;9.150;2022-11-20T15:02:00;21.20;;;9.38;;
71490;SDS011;59307;50.060;9.150;2022-11-20T15:04:26;19.30;;;9.02;;
71490;SDS011;59307;50.060;9.150;2022-11-20T15:06:53;18.57;;;9.43;;
71490;SDS011;59307;50.060;9.150;2022-11-20T15:09:18;18.63;;;9.38;;
71490;SDS011;59307;50.060;9.150;2022-11-20T15:12:17;19.20;;;9.53;;
71490;SDS011;59307;50.060;9.150;2022-11-20T15:14:35;21.77;;;9.60;;
71490;SDS011;59307;50.060;9.150;2022-11-20T15:17:00;20.70;;;9.60;;
71490;SDS011;59307;50.060;9.150;2022-11-20T15:19:26;19.50;;;9.63;;
71490;SDS011;59307;50.060;9.150;2022-11-20T15:21:51;24.08;;;10.20;;
71490;SDS011;59307;50.060;9.150;2022-11-20T15:24:17;19.73;;;10.60;;
71490;SDS011;59307;50.060;9.150;2022-11-20T15:26:42;20.43;;;10.57;;
71490;SDS011;59307;50.060;9.150;2022-11-20T15:29:09;23.40;;;11.15;;
71490;SDS011;59307;50.060;9.150;2022-11-20T15:31:35;28.00;;;11.47;;
71490;SDS011;59307;50.060;9.150;2022-11-20T15:34:01;21.85;;;10.73;;
71490;SDS011;59307;50.060;9.150;2022-11-20T15:36:26;25.57;;;12.17;;
71490;SDS011;59307;50.060;9.150;2022-11-20T15:38:51;26.63;;;12.87;;
71490;SDS011;59307;50.060;9.150;2022-11-20T15:41:16;27.83;;;11.80;;
71490;SDS011;59307;50.060;9.150;2022-11-20T15:43:42;24.97;;;11.53;;
71490;SDS011;59307;50.060;9.150;2022-11-20T15:46:14;27.47;;;12.10;;